createdAt,value
2022-08-05T00:00:26.859Z,2.70
2022-08-05T00:03:33.567Z,2.65
2022-08-05T00:06:39.383Z,2.63
2022-08-05T00:09:44.408Z,2.45
2022-08-05T00:12:56.571Z,2.83
2022-08-05T00:16:05.279Z,2.80
2022-08-05T00:19:13.562Z,2.47
2022-08-05T00:22:18.514Z,3.63
2022-08-05T00:25:25.080Z,3.67
2022-08-05T00:28:30.071Z,3.60
2022-08-05T00:31:53.571Z,3.55
2022-08-05T00:35:06.783Z,3.10
2022-08-05T00:38:12.814Z,3.33
2022-08-05T00:41:51.460Z,3.47
2022-08-05T00:44:56.024Z,3.03
2022-08-05T00:48:05.500Z,2.85
2022-08-05T00:51:50.902Z,3.42
2022-08-05T00:54:36.208Z,3.35
2022-08-05T00:57:58.299Z,3.72
2022-08-05T01:01:08.605Z,3.55
2022-08-05T01:04:20.243Z,4.05
2022-08-05T01:07:31.980Z,3.45
2022-08-05T01:10:52.259Z,4.05
2022-08-05T01:14:08.861Z,3.55
2022-08-05T01:17:17.341Z,3.50
2022-08-05T01:20:38.787Z,3.90
2022-08-05T01:24:13.127Z,3.70
2022-08-05T01:27:35.246Z,4.25
2022-08-05T01:31:03.885Z,3.65
2022-08-05T01:34:14.441Z,4.20
2022-08-05T01:37:24.561Z,3.83
2022-08-05T01:40:32.890Z,3.50
2022-08-05T01:43:39.973Z,3.97
2022-08-05T01:46:49.032Z,3.35
2022-08-05T01:50:01.373Z,4.75
2022-08-05T01:53:10.310Z,5.38
2022-08-05T01:58:10.212Z,4.80
2022-08-05T01:59:47.004Z,3.88
2022-08-05T02:02:58.911Z,4.18
2022-08-05T02:06:33.502Z,4.35
2022-08-05T02:09:31.917Z,4.55
2022-08-05T02:12:45.837Z,4.93
2022-08-05T02:16:03.315Z,4.82
2022-08-05T02:19:16.010Z,4.40
2022-08-05T02:22:26.900Z,5.50
2022-08-05T02:25:49.279Z,5.32
2022-08-05T02:28:58.225Z,4.85
2022-08-05T02:32:04.576Z,5.00
2022-08-05T02:35:19.196Z,4.57
2022-08-05T02:38:35.344Z,4.43
2022-08-05T02:41:58.099Z,4.53
2022-08-05T02:45:07.456Z,5.15
2022-08-05T02:48:13.858Z,4.88
2022-08-05T02:51:28.275Z,4.30
2022-08-05T02:54:52.165Z,4.90
2022-08-05T02:58:19.949Z,4.97
2022-08-05T03:01:27.855Z,5.13
2022-08-05T03:04:33.321Z,5.38
2022-08-05T03:08:06.848Z,4.82
2022-08-05T03:11:56.985Z,4.78
2022-08-05T03:14:32.537Z,4.72
2022-08-05T03:17:41.545Z,5.63
2022-08-05T03:20:48.945Z,5.43
2022-08-05T03:23:58.175Z,5.22
2022-08-05T03:27:03.502Z,5.95
2022-08-05T03:30:13.969Z,5.47
2022-08-05T03:33:20.493Z,5.20
2022-08-05T03:36:30.171Z,5.65
2022-08-05T03:39:58.583Z,6.03
2022-08-05T03:43:58.760Z,6.35
2022-08-05T03:46:30.047Z,5.80
2022-08-05T03:49:51.585Z,6.03
2022-08-05T03:55:51.580Z,6.13
2022-08-05T03:56:42.536Z,5.53
2022-08-05T03:59:54.715Z,6.00
2022-08-05T04:03:04.285Z,6.03
2022-08-05T04:06:10.546Z,5.88
2022-08-05T04:09:15.803Z,6.00
2022-08-05T04:15:39.614Z,6.03
2022-08-05T04:19:10.520Z,6.00
2022-08-05T04:22:20.563Z,6.28
2022-08-05T04:25:57.057Z,6.00
2022-08-05T04:28:53.945Z,6.82
2022-08-05T04:31:58.930Z,6.70
2022-08-05T04:35:05.861Z,6.53
2022-08-05T04:38:11.114Z,6.93
2022-08-05T04:41:20.587Z,7.30
2022-08-05T04:44:41.787Z,7.13
2022-08-05T04:47:47.263Z,7.30
2022-08-05T04:51:03.531Z,7.18
2022-08-05T04:54:16.855Z,7.57
2022-08-05T04:57:22.923Z,7.57
2022-08-05T05:00:37.054Z,7.75
2022-08-05T05:03:42.830Z,6.78
2022-08-05T05:06:51.825Z,7.53
2022-08-05T05:09:57.122Z,7.82
2022-08-05T05:13:03.965Z,7.45
2022-08-05T05:16:12.380Z,7.30
2022-08-05T05:19:23.690Z,7.75
2022-08-05T05:22:32.598Z,7.35
2022-08-05T05:25:40.551Z,7.20
2022-08-05T05:28:46.339Z,7.32
2022-08-05T05:31:54.014Z,7.60
2022-08-05T05:34:59.423Z,7.40
2022-08-05T05:38:08.899Z,7.07
2022-08-05T05:41:16.424Z,7.35
2022-08-05T05:44:36.923Z,7.07
2022-08-05T05:48:06.949Z,7.68
2022-08-05T05:51:15.836Z,7.38
2022-08-05T05:54:21.292Z,8.35
2022-08-05T05:57:26.440Z,7.63
2022-08-05T06:00:48.102Z,7.95
2022-08-05T06:04:01.755Z,7.85
2022-08-05T06:07:08.651Z,7.60
2022-08-05T06:10:16.052Z,7.85
2022-08-05T06:13:23.619Z,7.75
2022-08-05T06:16:32.763Z,7.75
2022-08-05T06:19:45.399Z,8.17
2022-08-05T06:23:04.022Z,8.07
2022-08-05T06:26:20.761Z,8.10
2022-08-05T06:29:48.942Z,8.07
2022-08-05T06:32:52.088Z,7.68
2022-08-05T06:36:07.959Z,7.47
2022-08-05T06:39:15.011Z,7.95
2022-08-05T06:42:20.043Z,7.68
2022-08-05T06:46:03.008Z,7.80
2022-08-05T06:48:56.470Z,7.82
2022-08-05T06:52:07.394Z,8.02
2022-08-05T06:55:12.691Z,7.70
2022-08-05T06:58:34.959Z,8.45
2022-08-05T07:01:42.560Z,8.18
2022-08-05T07:04:47.549Z,7.72
2022-08-05T07:07:55.450Z,8.05
2022-08-05T07:11:00.446Z,7.63
2022-08-05T07:14:20.460Z,7.82
2022-08-05T07:18:00.620Z,7.90
2022-08-05T07:21:04.683Z,7.80
2022-08-05T07:24:13.476Z,8.18
2022-08-05T07:27:18.539Z,7.32
2022-08-05T07:30:27.293Z,7.38
2022-08-05T07:33:37.409Z,7.13
2022-08-05T07:36:47.058Z,6.80
2022-08-05T07:40:04.745Z,7.35
2022-08-05T07:43:26.506Z,5.97
2022-08-05T07:46:34.568Z,6.53
2022-08-05T07:49:54.434Z,5.45
2022-08-05T07:52:59.829Z,6.43
2022-08-05T07:56:38.965Z,5.63
2022-08-05T07:59:40.995Z,6.60
2022-08-05T08:03:15.136Z,6.00
2022-08-05T08:06:11.398Z,5.80
2022-08-05T08:09:18.654Z,5.38
2022-08-05T08:12:48.419Z,5.07
2022-08-05T08:16:34.455Z,4.95
2022-08-05T08:20:10.365Z,5.30
2022-08-05T08:22:52.896Z,4.88
2022-08-05T08:26:00.260Z,5.32
2022-08-05T08:29:45.327Z,5.03
2022-08-05T08:32:41.745Z,4.90
2022-08-05T08:35:53.112Z,4.32
2022-08-05T08:39:15.598Z,4.28
2022-08-05T08:42:34.181Z,4.72
2022-08-05T08:45:47.538Z,4.75
2022-08-05T08:49:17.338Z,4.10
2022-08-05T08:52:28.065Z,4.10
2022-08-05T08:56:03.141Z,4.07
2022-08-05T08:59:01.576Z,4.88
2022-08-05T09:02:20.333Z,4.30
2022-08-05T09:05:38.395Z,3.88
2022-08-05T09:08:53.453Z,3.80
2022-08-05T09:12:04.642Z,3.47
2022-08-05T09:15:21.014Z,3.20
2022-08-05T09:18:31.485Z,2.95
2022-08-05T09:22:30.837Z,3.30
2022-08-05T09:25:02.189Z,2.80
2022-08-05T09:28:31.857Z,2.60
2022-08-05T09:32:38.999Z,2.60
2022-08-05T09:35:26.673Z,2.10
2022-08-05T09:38:33.242Z,1.88
2022-08-05T09:41:59.815Z,1.48
2022-08-05T09:45:17.754Z,1.80
2022-08-05T09:48:38.450Z,1.40
2022-08-05T09:51:49.427Z,1.52
2022-08-05T09:55:00.234Z,1.63
2022-08-05T09:58:15.623Z,1.45
2022-08-05T10:01:32.530Z,1.42
2022-08-05T10:04:45.246Z,1.08
2022-08-05T10:08:10.639Z,0.95
2022-08-05T10:11:21.465Z,1.10
2022-08-05T10:14:30.291Z,1.17
2022-08-05T10:17:40.020Z,1.40
2022-08-05T10:20:50.120Z,1.10
2022-08-05T10:24:00.469Z,1.20
2022-08-05T10:27:07.605Z,1.23
2022-08-05T10:32:46.881Z,0.90
2022-08-05T10:33:38.850Z,1.23
2022-08-05T10:36:45.443Z,0.80
2022-08-05T10:39:59.483Z,0.60
2022-08-05T10:43:35.538Z,0.95
2022-08-05T10:46:51.004Z,0.80
2022-08-05T10:50:31.588Z,0.73
2022-08-05T10:53:45.433Z,1.05
2022-08-05T10:56:56.037Z,0.55
2022-08-05T11:00:20.253Z,0.47
2022-08-05T11:03:27.151Z,1.17
2022-08-05T11:06:32.792Z,0.50
2022-08-05T11:09:47.162Z,0.70
2022-08-05T11:12:55.401Z,0.40
2022-08-05T11:16:33.914Z,0.43
2022-08-05T11:20:11.120Z,0.75
2022-08-05T11:24:03.996Z,0.20
2022-08-05T11:27:45.825Z,0.43
2022-08-05T11:31:56.338Z,0.50
2022-08-05T11:38:30.851Z,0.65
2022-08-05T11:42:01.462Z,0.60
2022-08-05T11:45:14.283Z,0.50
2022-08-05T11:48:34.129Z,0.95
2022-08-05T11:51:49.594Z,0.43
2022-08-05T11:54:56.948Z,0.40
2022-08-05T11:58:09.174Z,0.50
2022-08-05T12:01:19.302Z,0.50
2022-08-05T12:04:27.456Z,0.70
2022-08-05T12:08:10.444Z,0.45
2022-08-05T12:11:10.873Z,0.40
2022-08-05T12:14:39.399Z,0.50
2022-08-05T12:18:04.244Z,0.45
2022-08-05T12:21:24.339Z,0.30
2022-08-05T12:24:36.350Z,0.43
2022-08-05T12:27:53.183Z,0.30
2022-08-05T12:31:03.994Z,0.47
2022-08-05T12:34:20.511Z,0.40
2022-08-05T12:37:30.043Z,0.40
2022-08-05T12:40:37.568Z,0.30
2022-08-05T12:43:57.921Z,0.52
2022-08-05T12:47:05.810Z,0.50
2022-08-05T12:50:19.930Z,0.57
2022-08-05T12:53:33.038Z,0.45
2022-08-05T13:01:56.663Z,0.32
2022-08-05T13:03:24.546Z,0.35
2022-08-05T13:06:51.476Z,0.40
2022-08-05T13:10:19.436Z,0.20
2022-08-05T13:14:05.834Z,0.20
2022-08-05T13:16:57.847Z,0.60
2022-08-05T13:20:06.977Z,0.38
2022-08-05T13:23:14.790Z,0.50
2022-08-05T13:26:30.325Z,0.32
2022-08-05T13:29:38.093Z,0.30
2022-08-05T13:32:50.591Z,0.30
2022-08-05T13:36:01.907Z,0.45
2022-08-05T13:40:12.743Z,0.60
2022-08-05T13:42:46.952Z,0.40
2022-08-05T13:45:53.280Z,0.30
2022-08-05T13:49:01.288Z,0.70
2022-08-05T13:52:15.275Z,0.40
2022-08-05T13:55:40.864Z,0.38
2022-08-05T13:59:06.306Z,0.40
2022-08-05T14:02:31.444Z,0.28
2022-08-05T14:06:04.835Z,0.40
2022-08-05T14:09:08.584Z,0.30
2022-08-05T14:12:17.653Z,0.60
2022-08-05T14:16:09.254Z,0.30
2022-08-05T14:19:04.500Z,0.60
2022-08-05T14:22:11.787Z,0.22
2022-08-05T14:25:19.236Z,0.60
2022-08-05T14:28:32.077Z,0.40
2022-08-05T14:32:03.617Z,0.60
2022-08-05T14:35:20.735Z,0.20
2022-08-05T14:38:35.743Z,0.30
2022-08-05T14:42:19.447Z,0.47
2022-08-05T14:45:23.510Z,0.50
2022-08-05T14:48:42.859Z,0.50
2022-08-05T14:51:50.747Z,1.00
2022-08-05T14:54:56.138Z,0.52
2022-08-05T14:58:14.620Z,0.40
2022-08-05T15:01:47.840Z,0.30
2022-08-05T15:04:50.232Z,0.63
2022-08-05T15:08:09.169Z,0.32
2022-08-05T15:11:24.769Z,0.35
2022-08-05T15:14:52.279Z,0.28
2022-08-05T15:18:09.876Z,0.40
2022-08-05T15:21:22.397Z,0.30
2022-08-05T15:24:29.420Z,0.40
2022-08-05T15:27:36.026Z,0.50
2022-08-05T15:30:41.378Z,0.75
2022-08-05T15:34:04.760Z,0.40
2022-08-05T15:38:33.731Z,0.40
2022-08-05T15:41:21.347Z,0.30
2022-08-05T15:44:17.600Z,0.68
2022-08-05T15:47:25.662Z,0.70
2022-08-05T15:50:33.168Z,0.10
2022-08-05T15:53:50.897Z,0.40
2022-08-05T15:56:58.306Z,0.45
2022-08-05T16:00:26.073Z,0.50
2022-08-05T16:03:41.209Z,0.73
2022-08-05T16:06:46.377Z,0.60
2022-08-05T16:10:01.727Z,0.20
2022-08-05T16:13:23.311Z,0.88
2022-08-05T16:16:32.347Z,0.40
2022-08-05T16:20:03.472Z,0.75
2022-08-05T16:23:08.666Z,0.35
2022-08-05T16:26:26.619Z,0.57
2022-08-05T16:29:37.283Z,0.57
2022-08-05T16:32:46.360Z,0.50
2022-08-05T16:35:53.056Z,0.50
2022-08-05T16:38:59.261Z,0.45
2022-08-05T16:42:27.398Z,0.60
2022-08-05T16:46:06.635Z,0.60
2022-08-05T16:49:08.417Z,0.70
2022-08-05T16:52:15.041Z,0.80
2022-08-05T16:55:22.927Z,0.63
2022-08-05T16:58:32.366Z,0.50
2022-08-05T17:01:53.937Z,0.55
2022-08-05T17:05:04.273Z,0.57
2022-08-05T17:08:09.410Z,0.68
2022-08-05T17:11:23.441Z,0.35
2022-08-05T17:14:37.447Z,0.35
2022-08-05T17:17:44.091Z,0.55
2022-08-05T17:20:49.329Z,0.43
2022-08-05T17:24:05.254Z,1.02
2022-08-05T17:27:19.421Z,0.80
2022-08-05T17:30:28.163Z,0.40
2022-08-05T17:33:38.920Z,0.80
2022-08-05T17:36:53.412Z,0.68
2022-08-05T17:40:04.575Z,0.52
2022-08-05T17:43:15.463Z,0.60
2022-08-05T17:46:26.700Z,0.40
2022-08-05T17:49:51.651Z,0.32
2022-08-05T17:53:01.641Z,0.65
2022-08-05T17:56:07.254Z,0.40
2022-08-05T17:59:12.719Z,0.70
2022-08-05T18:02:20.291Z,0.60
2022-08-05T18:05:35.679Z,0.43
2022-08-05T18:08:44.555Z,0.30
2022-08-05T18:11:52.753Z,0.63
2022-08-05T18:14:57.978Z,0.65
2022-08-05T18:18:10.879Z,0.50
2022-08-05T18:21:19.992Z,0.40
2022-08-05T18:24:27.781Z,0.60
2022-08-05T18:27:33.133Z,0.52
2022-08-05T18:30:39.052Z,0.38
2022-08-05T18:33:51.679Z,0.30
2022-08-05T18:36:56.779Z,0.30
2022-08-05T18:41:49.974Z,0.47
2022-08-05T18:43:26.874Z,0.40
2022-08-05T18:46:36.797Z,0.55
2022-08-05T18:49:59.639Z,0.57
2022-08-05T18:53:06.492Z,1.00
2022-08-05T18:56:25.237Z,0.65
2022-08-05T18:59:45.703Z,0.60
2022-08-05T19:02:56.355Z,0.63
2022-08-05T19:06:12.843Z,0.80
2022-08-05T19:09:27.334Z,0.60
2022-08-05T19:12:46.057Z,1.42
2022-08-05T19:15:57.468Z,0.65
2022-08-05T19:19:05.758Z,0.70
2022-08-05T19:22:17.340Z,0.98
2022-08-05T19:25:30.702Z,0.93
2022-08-05T19:28:44.595Z,0.50
2022-08-05T19:31:51.498Z,0.93
2022-08-05T19:34:56.829Z,0.73
2022-08-05T19:38:08.236Z,0.95
2022-08-05T19:41:14.914Z,1.20
2022-08-05T19:44:20.321Z,0.80
2022-08-05T19:47:25.341Z,0.63
2022-08-05T19:50:35.057Z,0.70
2022-08-05T19:54:04.105Z,0.70
2022-08-05T19:57:10.113Z,0.90
2022-08-05T20:00:15.974Z,0.60
2022-08-05T20:03:26.114Z,0.52
2022-08-05T20:06:36.053Z,0.80
2022-08-05T20:09:56.558Z,0.80
2022-08-05T20:13:02.864Z,1.08
2022-08-05T20:16:08.608Z,0.85
2022-08-05T20:19:13.985Z,0.90
2022-08-05T20:22:23.104Z,1.48
2022-08-05T20:25:39.938Z,0.90
2022-08-05T20:28:46.155Z,0.53
2022-08-05T20:31:57.700Z,1.38
2022-08-05T20:35:03.271Z,1.08
2022-08-05T20:38:08.571Z,1.02
2022-08-05T20:41:24.243Z,0.55
2022-08-05T20:44:33.227Z,1.23
2022-08-05T20:47:42.939Z,1.00
2022-08-05T20:50:48.206Z,0.80
2022-08-05T20:53:56.600Z,0.95
2022-08-05T20:57:04.896Z,0.95
2022-08-05T21:00:41.640Z,1.00
2022-08-05T21:03:47.966Z,0.80
2022-08-05T21:06:53.695Z,1.08
2022-08-05T21:09:58.796Z,1.20
2022-08-05T21:13:10.319Z,1.10
2022-08-05T21:16:19.780Z,0.85
2022-08-05T21:19:24.976Z,0.93
2022-08-05T21:22:33.550Z,1.27
2022-08-05T21:25:44.465Z,0.60
2022-08-05T21:28:52.768Z,0.95
2022-08-05T21:32:05.953Z,0.82
2022-08-05T21:35:18.162Z,1.08
2022-08-05T21:38:38.729Z,1.03
2022-08-05T21:41:52.475Z,0.82
2022-08-05T21:45:00.692Z,0.93
2022-08-05T21:48:06.349Z,1.00
2022-08-05T21:52:16.677Z,0.80
2022-08-05T21:54:38.412Z,1.30
2022-08-05T21:57:43.507Z,1.00
2022-08-05T22:00:54.172Z,1.63
2022-08-05T22:03:59.247Z,1.15
2022-08-05T22:07:05.217Z,1.10
2022-08-05T22:10:11.935Z,1.42
2022-08-05T22:14:05.749Z,0.93
2022-08-05T22:16:50.990Z,1.02
2022-08-05T22:20:03.453Z,1.27
2022-08-05T22:24:00.976Z,1.27
2022-08-05T22:27:21.183Z,1.15
2022-08-05T22:30:35.246Z,1.00
2022-08-05T22:33:56.571Z,1.30
2022-08-05T22:37:04.727Z,1.17
2022-08-05T22:40:12.177Z,0.85
2022-08-05T22:43:36.920Z,0.90
2022-08-05T22:46:42.953Z,1.45
2022-08-05T22:50:19.176Z,1.30
2022-08-05T22:53:19.181Z,1.50
2022-08-05T22:56:30.239Z,1.90
2022-08-05T22:59:46.466Z,1.35
2022-08-05T23:02:56.179Z,1.40
2022-08-05T23:06:05.761Z,1.08
2022-08-05T23:09:14.175Z,1.13
2022-08-05T23:12:33.424Z,0.98
2022-08-05T23:15:41.847Z,0.88
2022-08-05T23:18:47.976Z,0.88
2022-08-05T23:21:57.009Z,1.25
2022-08-05T23:25:03.544Z,1.20
2022-08-05T23:28:09.974Z,1.33
2022-08-05T23:31:17.355Z,1.25
2022-08-05T23:34:24.487Z,1.30
2022-08-05T23:37:34.172Z,1.42
2022-08-05T23:40:42.256Z,1.45
2022-08-05T23:44:06.396Z,1.30
2022-08-05T23:47:15.799Z,1.80
2022-08-05T23:50:20.962Z,1.40
2022-08-05T23:53:46.611Z,1.58
2022-08-05T23:56:52.101Z,1.90
